sensor_id;sensor_type;location;lat;lon;timestamp;pressure;altitude;pressure_sealevel;temperature;humidity
75414;BME280;64758;52.122;5.404;2022-12-13T00:01:44;101623.63;;;-5.66;93.96
75414;BME280;64758;52.122;5.404;2022-12-13T00:04:12;101628.69;;;-5.63;94.62
75414;BME280;64758;52.122;5.404;2022-12-13T00:06:39;101628.59;;;-5.61;95.05
75414;BME280;64758;52.122;5.404;2022-12-13T00:09:07;101640.50;;;-5.57;94.35
75414;BME280;64758;52.122;5.404;2022-12-13T00:11:34;101614.88;;;-5.63;93.59
75414;BME280;64758;52.122;5.404;2022-12-13T00:14:01;101621.69;;;-5.61;94.18
75414;BME280;64758;52.122;5.404;2022-12-13T00:16:27;101621.63;;;-5.59;93.88
75414;BME280;64758;52.122;5.404;2022-12-13T00:18:58;101610.50;;;-5.61;93.81
75414;BME280;64758;52.122;5.404;2022-12-13T00:21:28;101608.81;;;-5.62;94.02
75414;BME280;64758;52.122;5.404;2022-12-13T00:23:56;101607.13;;;-5.63;93.84
75414;BME280;64758;52.122;5.404;2022-12-13T00:26:26;101615.78;;;-5.64;94.26
75414;BME280;64758;52.122;5.404;2022-12-13T00:28:53;101602.22;;;-5.69;94.87
75414;BME280;64758;52.122;5.404;2022-12-13T00:31:22;101603.22;;;-5.72;94.19
75414;BME280;64758;52.122;5.404;2022-12-13T00:34:09;101607.53;;;-5.72;94.31
75414;BME280;64758;52.122;5.404;2022-12-13T00:36:35;101607.59;;;-5.74;94.82
75414;BME280;64758;52.122;5.404;2022-12-13T00:39:02;101601.53;;;-5.73;94.24
75414;BME280;64758;52.122;5.404;2022-12-13T00:41:33;101598.84;;;-5.71;95.17
75414;BME280;64758;52.122;5.404;2022-12-13T00:44:01;101603.13;;;-5.70;93.75
75414;BME280;64758;52.122;5.404;2022-12-13T00:46:28;101593.00;;;-5.75;94.40
75414;BME280;64758;52.122;5.404;2022-12-13T00:48:57;101593.78;;;-5.73;93.74
75414;BME280;64758;52.122;5.404;2022-12-13T00:51:25;101590.63;;;-5.79;94.51
75414;BME280;64758;52.122;5.404;2022-12-13T00:53:53;101588.72;;;-5.76;94.33
75414;BME280;64758;52.122;5.404;2022-12-13T00:56:25;101591.38;;;-5.77;94.67
75414;BME280;64758;52.122;5.404;2022-12-13T00:58:52;101593.16;;;-5.78;94.33
75414;BME280;64758;52.122;5.404;2022-12-13T01:01:25;101580.38;;;-5.81;93.88
75414;BME280;64758;52.122;5.404;2022-12-13T01:03:54;101584.69;;;-5.81;93.70
75414;BME280;64758;52.122;5.404;2022-12-13T01:06:25;101583.91;;;-5.83;93.99
75414;BME280;64758;52.122;5.404;2022-12-13T01:08:53;101587.47;;;-5.86;94.34
75414;BME280;64758;52.122;5.404;2022-12-13T01:11:20;101584.94;;;-5.87;93.64
75414;BME280;64758;52.122;5.404;2022-12-13T01:13:47;101591.00;;;-5.88;94.31
75414;BME280;64758;52.122;5.404;2022-12-13T01:16:13;101590.97;;;-5.87;94.54
75414;BME280;64758;52.122;5.404;2022-12-13T01:18:40;101590.97;;;-5.87;94.49
75414;BME280;64758;52.122;5.404;2022-12-13T01:21:11;101585.16;;;-5.92;94.46
75414;BME280;64758;52.122;5.404;2022-12-13T01:23:39;101584.28;;;-5.92;94.09
75414;BME280;64758;52.122;5.404;2022-12-13T01:26:08;101585.97;;;-5.91;94.00
75414;BME280;64758;52.122;5.404;2022-12-13T01:28:35;101595.41;;;-5.90;93.48
75414;BME280;64758;52.122;5.404;2022-12-13T01:31:04;101592.94;;;-5.93;93.39
75414;BME280;64758;52.122;5.404;2022-12-13T01:33:32;101592.25;;;-5.97;93.17
75414;BME280;64758;52.122;5.404;2022-12-13T01:36:00;101584.69;;;-6.01;93.07
75414;BME280;64758;52.122;5.404;2022-12-13T01:38:28;101585.78;;;-6.07;93.82
75414;BME280;64758;52.122;5.404;2022-12-13T01:40:54;101585.19;;;-6.13;93.69
75414;BME280;64758;52.122;5.404;2022-12-13T01:46:08;101584.34;;;-6.14;93.70
75414;BME280;64758;52.122;5.404;2022-12-13T01:48:43;101578.47;;;-6.17;93.35
75414;BME280;64758;52.122;5.404;2022-12-13T01:51:14;101575.88;;;-6.17;94.04
75414;BME280;64758;52.122;5.404;2022-12-13T01:53:44;101574.97;;;-6.16;93.73
75414;BME280;64758;52.122;5.404;2022-12-13T01:56:27;101586.88;;;-6.12;93.49
75414;BME280;64758;52.122;5.404;2022-12-13T01:58:56;101577.56;;;-6.16;93.79
75414;BME280;64758;52.122;5.404;2022-12-13T02:01:26;101581.94;;;-6.18;93.73
75414;BME280;64758;52.122;5.404;2022-12-13T02:03:53;101576.78;;;-6.18;93.48
75414;BME280;64758;52.122;5.404;2022-12-13T02:06:29;101586.22;;;-6.17;93.10
75414;BME280;64758;52.122;5.404;2022-12-13T02:08:59;101588.78;;;-6.17;93.63
75414;BME280;64758;52.122;5.404;2022-12-13T02:11:27;101581.25;;;-6.22;93.31
75414;BME280;64758;52.122;5.404;2022-12-13T02:13:53;101585.50;;;-6.21;92.90
75414;BME280;64758;52.122;5.404;2022-12-13T02:22:03;101583.88;;;-6.23;92.93
75414;BME280;64758;52.122;5.404;2022-12-13T02:27:46;101586.53;;;-6.24;92.95
75414;BME280;64758;52.122;5.404;2022-12-13T02:30:37;101586.66;;;-6.27;93.43
75414;BME280;64758;52.122;5.404;2022-12-13T02:33:10;101592.53;;;-6.24;92.54
75414;BME280;64758;52.122;5.404;2022-12-13T02:43:37;101564.63;;;-6.36;92.62
75414;BME280;64758;52.122;5.404;2022-12-13T02:46:11;101568.25;;;-6.40;92.79
75414;BME280;64758;52.122;5.404;2022-12-13T02:48:41;101557.16;;;-6.42;92.49
75414;BME280;64758;52.122;5.404;2022-12-13T02:51:09;101566.56;;;-6.41;92.54
75414;BME280;64758;52.122;5.404;2022-12-13T02:53:38;101567.53;;;-6.43;92.83
75414;BME280;64758;52.122;5.404;2022-12-13T02:56:06;101576.13;;;-6.43;92.74
75414;BME280;64758;52.122;5.404;2022-12-13T02:58:36;101560.50;;;-6.40;93.36
75414;BME280;64758;52.122;5.404;2022-12-13T03:04:04;101560.69;;;-6.44;92.74
75414;BME280;64758;52.122;5.404;2022-12-13T03:09:38;101556.66;;;-6.51;92.46
75414;BME280;64758;52.122;5.404;2022-12-13T03:12:55;101565.16;;;-6.48;92.66
75414;BME280;64758;52.122;5.404;2022-12-13T03:15:55;101558.41;;;-6.52;92.93
75414;BME280;64758;52.122;5.404;2022-12-13T03:18:26;101550.78;;;-6.55;92.55
75414;BME280;64758;52.122;5.404;2022-12-13T03:20:59;101555.88;;;-6.53;92.41
75414;BME280;64758;52.122;5.404;2022-12-13T03:23:26;101557.63;;;-6.54;92.40
75414;BME280;64758;52.122;5.404;2022-12-13T03:25:56;101562.16;;;-6.59;92.35
75414;BME280;64758;52.122;5.404;2022-12-13T03:28:25;101557.81;;;-6.58;92.47
75414;BME280;64758;52.122;5.404;2022-12-13T03:30:51;101557.88;;;-6.60;92.96
75414;BME280;64758;52.122;5.404;2022-12-13T03:33:18;101559.56;;;-6.59;92.31
75414;BME280;64758;52.122;5.404;2022-12-13T03:35:44;101559.56;;;-6.59;93.13
75414;BME280;64758;52.122;5.404;2022-12-13T03:38:15;101558.78;;;-6.61;92.86
75414;BME280;64758;52.122;5.404;2022-12-13T03:40:53;101558.91;;;-6.64;92.44
75414;BME280;64758;52.122;5.404;2022-12-13T03:43:21;101562.38;;;-6.65;92.44
75414;BME280;64758;52.122;5.404;2022-12-13T03:45:49;101555.41;;;-6.63;92.58
75414;BME280;64758;52.122;5.404;2022-12-13T03:48:16;101561.38;;;-6.61;92.60
75414;BME280;64758;52.122;5.404;2022-12-13T03:50:49;101549.34;;;-6.62;92.98
75414;BME280;64758;52.122;5.404;2022-12-13T03:53:15;101556.22;;;-6.61;92.93
75414;BME280;64758;52.122;5.404;2022-12-13T03:56:03;101558.94;;;-6.65;92.64
75414;BME280;64758;52.122;5.404;2022-12-13T03:58:30;101558.25;;;-6.69;91.89
75414;BME280;64758;52.122;5.404;2022-12-13T04:01:08;101554.09;;;-6.73;92.76
75414;BME280;64758;52.122;5.404;2022-12-13T04:03:36;101559.19;;;-6.71;93.00
75414;BME280;64758;52.122;5.404;2022-12-13T04:06:04;101561.00;;;-6.73;92.93
75414;BME280;64758;52.122;5.404;2022-12-13T04:08:31;101557.47;;;-6.71;93.08
75414;BME280;64758;52.122;5.404;2022-12-13T04:10:57;101553.25;;;-6.73;92.91
75414;BME280;64758;52.122;5.404;2022-12-13T04:13:24;101556.69;;;-6.73;92.16
75414;BME280;64758;52.122;5.404;2022-12-13T04:16:00;101558.50;;;-6.75;92.94
75414;BME280;64758;52.122;5.404;2022-12-13T04:18:27;101563.56;;;-6.73;92.82
75414;BME280;64758;52.122;5.404;2022-12-13T04:20:54;101548.41;;;-6.81;92.33
75414;BME280;64758;52.122;5.404;2022-12-13T04:23:20;101557.88;;;-6.81;92.21
75414;BME280;64758;52.122;5.404;2022-12-13T04:25:47;101561.34;;;-6.82;92.27
75414;BME280;64758;52.122;5.404;2022-12-13T04:28:13;101559.66;;;-6.83;92.51
75414;BME280;64758;52.122;5.404;2022-12-13T04:30:49;101546.97;;;-6.88;91.84
75414;BME280;64758;52.122;5.404;2022-12-13T04:33:20;101550.38;;;-6.87;92.10
75414;BME280;64758;52.122;5.404;2022-12-13T04:35:47;101547.97;;;-6.92;92.17
75414;BME280;64758;52.122;5.404;2022-12-13T04:38:14;101542.97;;;-6.96;92.06
75414;BME280;64758;52.122;5.404;2022-12-13T04:40:41;101548.03;;;-6.93;92.29
75414;BME280;64758;52.122;5.404;2022-12-13T04:43:07;101546.53;;;-6.99;92.09
75414;BME280;64758;52.122;5.404;2022-12-13T04:45:34;101536.38;;;-7.03;92.23
75414;BME280;64758;52.122;5.404;2022-12-13T04:48:01;101547.56;;;-7.03;92.15
75414;BME280;64758;52.122;5.404;2022-12-13T04:50:27;101537.41;;;-7.07;91.63
75414;BME280;64758;52.122;5.404;2022-12-13T04:52:54;101543.19;;;-7.01;91.82
75414;BME280;64758;52.122;5.404;2022-12-13T04:55:20;101531.22;;;-7.03;92.10
75414;BME280;64758;52.122;5.404;2022-12-13T04:57:47;101535.44;;;-7.01;92.33
75414;BME280;64758;52.122;5.404;2022-12-13T05:00:14;101529.50;;;-7.03;92.57
75414;BME280;64758;52.122;5.404;2022-12-13T05:02:41;101530.50;;;-7.07;92.62
75414;BME280;64758;52.122;5.404;2022-12-13T05:05:08;101541.53;;;-7.03;92.48
75414;BME280;64758;52.122;5.404;2022-12-13T05:07:37;101528.72;;;-7.05;92.16
75414;BME280;64758;52.122;5.404;2022-12-13T05:10:09;101521.88;;;-7.06;92.59
75414;BME280;64758;52.122;5.404;2022-12-13T05:12:35;101520.06;;;-7.04;92.42
75414;BME280;64758;52.122;5.404;2022-12-13T05:15:02;101518.28;;;-7.02;92.94
75414;BME280;64758;52.122;5.404;2022-12-13T05:17:29;101518.28;;;-7.02;92.74
75414;BME280;64758;52.122;5.404;2022-12-13T05:19:56;101512.38;;;-7.05;92.59
75414;BME280;64758;52.122;5.404;2022-12-13T05:22:22;101511.22;;;-6.98;92.94
75414;BME280;64758;52.122;5.404;2022-12-13T05:24:49;101506.25;;;-7.03;92.85
75414;BME280;64758;52.122;5.404;2022-12-13T05:27:16;101504.34;;;-6.98;92.99
75414;BME280;64758;52.122;5.404;2022-12-13T05:29:53;101502.66;;;-6.99;92.67
75414;BME280;64758;52.122;5.404;2022-12-13T05:32:34;101502.84;;;-7.03;92.06
75414;BME280;64758;52.122;5.404;2022-12-13T05:35:14;101510.53;;;-7.02;92.46
75414;BME280;64758;52.122;5.404;2022-12-13T05:37:49;101511.44;;;-7.03;92.53
75414;BME280;64758;52.122;5.404;2022-12-13T05:40:20;101514.91;;;-7.04;92.44
75414;BME280;64758;52.122;5.404;2022-12-13T05:42:47;101510.75;;;-7.08;92.26
75414;BME280;64758;52.122;5.404;2022-12-13T05:45:14;101507.44;;;-7.11;92.25
75414;BME280;64758;52.122;5.404;2022-12-13T05:47:42;101506.56;;;-7.10;91.93
75414;BME280;64758;52.122;5.404;2022-12-13T05:50:10;101515.19;;;-7.11;92.19
75414;BME280;64758;52.122;5.404;2022-12-13T05:52:36;101498.09;;;-7.14;92.39
75414;BME280;64758;52.122;5.404;2022-12-13T05:55:04;101499.13;;;-7.18;92.25
75414;BME280;64758;52.122;5.404;2022-12-13T05:57:30;101501.63;;;-7.16;91.96
75414;BME280;64758;52.122;5.404;2022-12-13T05:59:59;101507.56;;;-7.14;91.49
75414;BME280;64758;52.122;5.404;2022-12-13T06:02:26;101497.56;;;-7.22;92.44
75414;BME280;64758;52.122;5.404;2022-12-13T06:04:53;101499.34;;;-7.24;92.91
75414;BME280;64758;52.122;5.404;2022-12-13T06:07:19;101511.34;;;-7.23;92.23
75414;BME280;64758;52.122;5.404;2022-12-13T06:09:46;101509.59;;;-7.22;92.12
75414;BME280;64758;52.122;5.404;2022-12-13T06:12:12;101521.59;;;-7.21;92.12
75414;BME280;64758;52.122;5.404;2022-12-13T06:14:58;101520.78;;;-7.22;92.25
75414;BME280;64758;52.122;5.404;2022-12-13T06:17:34;101502.88;;;-7.26;91.78
75414;BME280;64758;52.122;5.404;2022-12-13T06:20:03;101504.63;;;-7.27;91.60
75414;BME280;64758;52.122;5.404;2022-12-13T06:22:52;101495.31;;;-7.31;91.71
75414;BME280;64758;52.122;5.404;2022-12-13T06:25:19;101502.28;;;-7.33;92.04
75414;BME280;64758;52.122;5.404;2022-12-13T06:27:58;101502.41;;;-7.36;91.89
75414;BME280;64758;52.122;5.404;2022-12-13T06:30:27;101504.09;;;-7.35;91.83
75414;BME280;64758;52.122;5.404;2022-12-13T06:32:54;101492.19;;;-7.39;92.02
75414;BME280;64758;52.122;5.404;2022-12-13T06:35:21;101496.50;;;-7.39;92.17
75414;BME280;64758;52.122;5.404;2022-12-13T06:37:54;101502.44;;;-7.37;91.40
75414;BME280;64758;52.122;5.404;2022-12-13T06:40:27;101497.41;;;-7.40;92.00
75414;BME280;64758;52.122;5.404;2022-12-13T06:42:53;101493.09;;;-7.40;91.42
75414;BME280;64758;52.122;5.404;2022-12-13T06:45:20;101489.63;;;-7.39;91.43
75414;BME280;64758;52.122;5.404;2022-12-13T06:47:47;101487.16;;;-7.42;91.63
75414;BME280;64758;52.122;5.404;2022-12-13T06:50:13;101498.03;;;-7.34;91.51
75414;BME280;64758;52.122;5.404;2022-12-13T06:52:40;101492.13;;;-7.37;92.17
75414;BME280;64758;52.122;5.404;2022-12-13T06:55:07;101502.31;;;-7.34;92.36
75414;BME280;64758;52.122;5.404;2022-12-13T06:57:33;101500.72;;;-7.37;91.75
75414;BME280;64758;52.122;5.404;2022-12-13T07:00:00;101504.00;;;-7.33;92.19
75414;BME280;64758;52.122;5.404;2022-12-13T07:02:28;101498.94;;;-7.35;92.22
75414;BME280;64758;52.122;5.404;2022-12-13T07:04:55;101506.47;;;-7.30;92.48
75414;BME280;64758;52.122;5.404;2022-12-13T07:07:23;101520.22;;;-7.30;91.80
75414;BME280;64758;52.122;5.404;2022-12-13T07:09:50;101514.28;;;-7.32;91.46
75414;BME280;64758;52.122;5.404;2022-12-13T07:12:16;101511.94;;;-7.38;91.69
75414;BME280;64758;52.122;5.404;2022-12-13T07:14:44;101514.50;;;-7.38;91.75
75414;BME280;64758;52.122;5.404;2022-12-13T07:17:11;101510.13;;;-7.36;91.65
75414;BME280;64758;52.122;5.404;2022-12-13T07:19:57;101519.56;;;-7.35;91.80
75414;BME280;64758;52.122;5.404;2022-12-13T07:22:26;101516.19;;;-7.37;92.54
75414;BME280;64758;52.122;5.404;2022-12-13T07:24:53;101507.78;;;-7.42;92.18
75414;BME280;64758;52.122;5.404;2022-12-13T07:27:20;101514.50;;;-7.38;92.33
75414;BME280;64758;52.122;5.404;2022-12-13T07:29:46;101516.06;;;-7.34;92.36
75414;BME280;64758;52.122;5.404;2022-12-13T07:32:12;101519.38;;;-7.30;92.65
75414;BME280;64758;52.122;5.404;2022-12-13T07:34:39;101522.13;;;-7.35;92.50
75414;BME280;64758;52.122;5.404;2022-12-13T07:37:07;101527.09;;;-7.30;92.33
75414;BME280;64758;52.122;5.404;2022-12-13T07:39:54;101534.69;;;-7.26;92.67
75414;BME280;64758;52.122;5.404;2022-12-13T07:42:28;101530.53;;;-7.30;92.61
75414;BME280;64758;52.122;5.404;2022-12-13T07:44:54;101534.81;;;-7.29;92.68
75414;BME280;64758;52.122;5.404;2022-12-13T07:47:21;101528.78;;;-7.29;92.39
75414;BME280;64758;52.122;5.404;2022-12-13T07:49:48;101538.84;;;-7.22;92.56
75414;BME280;64758;52.122;5.404;2022-12-13T07:52:15;101538.88;;;-7.23;92.52
75414;BME280;64758;52.122;5.404;2022-12-13T07:54:41;101540.56;;;-7.22;91.97
75414;BME280;64758;52.122;5.404;2022-12-13T07:57:07;101530.31;;;-7.24;92.63
75414;BME280;64758;52.122;5.404;2022-12-13T07:59:34;101539.66;;;-7.21;92.42
75414;BME280;64758;52.122;5.404;2022-12-13T08:02:00;101553.22;;;-7.16;92.29
75414;BME280;64758;52.122;5.404;2022-12-13T08:04:27;101548.81;;;-7.13;92.36
75414;BME280;64758;52.122;5.404;2022-12-13T08:07:05;101548.69;;;-7.10;92.23
75414;BME280;64758;52.122;5.404;2022-12-13T08:09:32;101556.44;;;-7.10;92.01
75414;BME280;64758;52.122;5.404;2022-12-13T08:11:59;101549.47;;;-7.08;92.18
75414;BME280;64758;52.122;5.404;2022-12-13T08:14:26;101548.56;;;-7.07;91.96
75414;BME280;64758;52.122;5.404;2022-12-13T08:16:53;101545.78;;;-7.02;92.02
75414;BME280;64758;52.122;5.404;2022-12-13T08:19:20;101554.16;;;-6.96;91.33
75414;BME280;64758;52.122;5.404;2022-12-13T08:21:46;101549.00;;;-6.96;91.73
75414;BME280;64758;52.122;5.404;2022-12-13T08:24:25;101555.59;;;-6.89;92.10
75414;BME280;64758;52.122;5.404;2022-12-13T08:26:53;101559.75;;;-6.85;92.38
75414;BME280;64758;52.122;5.404;2022-12-13T08:29:20;101544.25;;;-6.85;92.01
75414;BME280;64758;52.122;5.404;2022-12-13T08:32:01;101549.97;;;-6.77;92.27
75414;BME280;64758;52.122;5.404;2022-12-13T08:34:28;101545.63;;;-6.76;92.26
75414;BME280;64758;52.122;5.404;2022-12-13T08:36:55;101551.41;;;-6.70;92.17
75414;BME280;64758;52.122;5.404;2022-12-13T08:39:31;101547.91;;;-6.69;92.06
75414;BME280;64758;52.122;5.404;2022-12-13T08:42:06;101549.22;;;-6.59;91.29
75414;BME280;64758;52.122;5.404;2022-12-13T08:44:45;101558.28;;;-6.49;92.04
75414;BME280;64758;52.122;5.404;2022-12-13T08:47:11;101558.09;;;-6.44;91.47
75414;BME280;64758;52.122;5.404;2022-12-13T08:49:51;101550.00;;;-6.37;92.27
75414;BME280;64758;52.122;5.404;2022-12-13T08:52:17;101559.84;;;-6.25;91.83
75414;BME280;64758;52.122;5.404;2022-12-13T08:54:44;101553.41;;;-6.15;92.41
75414;BME280;64758;52.122;5.404;2022-12-13T08:57:11;101554.78;;;-6.07;91.83
75414;BME280;64758;52.122;5.404;2022-12-13T08:59:38;101558.66;;;-5.97;91.45
75414;BME280;64758;52.122;5.404;2022-12-13T09:02:05;101546.50;;;-5.95;92.66
75414;BME280;64758;52.122;5.404;2022-12-13T09:04:31;101551.47;;;-5.90;93.06
75414;BME280;64758;52.122;5.404;2022-12-13T09:06:58;101557.00;;;-5.79;92.04
75414;BME280;64758;52.122;5.404;2022-12-13T09:09:27;101551.53;;;-5.73;92.41
75414;BME280;64758;52.122;5.404;2022-12-13T09:11:54;101553.72;;;-5.64;93.29
75414;BME280;64758;52.122;5.404;2022-12-13T09:14:25;101551.78;;;-5.59;93.59
75414;BME280;64758;52.122;5.404;2022-12-13T09:17:00;101559.91;;;-5.48;93.76
75414;BME280;64758;52.122;5.404;2022-12-13T09:19:29;101552.91;;;-5.46;93.77
75414;BME280;64758;52.122;5.404;2022-12-13T09:22:02;101554.19;;;-5.36;92.91
75414;BME280;64758;52.122;5.404;2022-12-13T09:24:29;101559.84;;;-5.28;92.99
75414;BME280;64758;52.122;5.404;2022-12-13T09:27:03;101559.31;;;-5.16;93.65
75414;BME280;64758;52.122;5.404;2022-12-13T09:29:36;101554.84;;;-5.13;93.10
75414;BME280;64758;52.122;5.404;2022-12-13T09:32:03;101556.44;;;-5.10;92.65
75414;BME280;64758;52.122;5.404;2022-12-13T09:34:30;101545.94;;;-5.07;92.82
75414;BME280;64758;52.122;5.404;2022-12-13T09:36:58;101549.91;;;-5.01;92.29
75414;BME280;64758;52.122;5.404;2022-12-13T09:39:27;101551.94;;;-4.89;92.51
75414;BME280;64758;52.122;5.404;2022-12-13T09:41:55;101546.94;;;-4.75;93.32
75414;BME280;64758;52.122;5.404;2022-12-13T09:44:33;101545.59;;;-4.65;92.86
75414;BME280;64758;52.122;5.404;2022-12-13T09:50:05;101534.19;;;-4.44;93.68
75414;BME280;64758;52.122;5.404;2022-12-13T09:52:36;101538.06;;;-4.35;93.07
75414;BME280;64758;52.122;5.404;2022-12-13T09:55:16;101540.97;;;-4.24;94.03
75414;BME280;64758;52.122;5.404;2022-12-13T09:57:44;101536.25;;;-4.16;94.04
75414;BME280;64758;52.122;5.404;2022-12-13T10:00:14;101538.22;;;-4.04;94.00
75414;BME280;64758;52.122;5.404;2022-12-13T10:02:53;101531.91;;;-3.99;94.74
75414;BME280;64758;52.122;5.404;2022-12-13T10:05:30;101519.41;;;-3.91;94.20
75414;BME280;64758;52.122;5.404;2022-12-13T10:08:14;101510.94;;;-3.79;94.46
75414;BME280;64758;52.122;5.404;2022-12-13T10:10:42;101507.56;;;-3.64;94.45
75414;BME280;64758;52.122;5.404;2022-12-13T10:15:57;101512.47;;;-3.43;94.42
75414;BME280;64758;52.122;5.404;2022-12-13T10:18:36;101506.25;;;-3.40;94.71
75414;BME280;64758;52.122;5.404;2022-12-13T10:21:08;101501.59;;;-3.34;94.33
75414;BME280;64758;52.122;5.404;2022-12-13T10:23:36;101494.47;;;-3.30;95.36
75414;BME280;64758;52.122;5.404;2022-12-13T10:26:23;101499.50;;;-3.27;94.25
75414;BME280;64758;52.122;5.404;2022-12-13T10:29:00;101495.91;;;-3.25;94.76
75414;BME280;64758;52.122;5.404;2022-12-13T10:31:27;101482.00;;;-3.24;94.62
75414;BME280;64758;52.122;5.404;2022-12-13T10:33:55;101482.59;;;-3.19;94.51
75414;BME280;64758;52.122;5.404;2022-12-13T10:36:34;101478.63;;;-3.10;95.46
75414;BME280;64758;52.122;5.404;2022-12-13T10:39:01;101482.31;;;-2.99;95.92
75414;BME280;64758;52.122;5.404;2022-12-13T10:41:34;101477.44;;;-2.89;95.75
75414;BME280;64758;52.122;5.404;2022-12-13T10:46:46;101471.63;;;-2.63;95.18
75414;BME280;64758;52.122;5.404;2022-12-13T10:49:20;101470.63;;;-2.47;95.03
75414;BME280;64758;52.122;5.404;2022-12-13T10:51:49;101466.38;;;-2.34;95.89
75414;BME280;64758;52.122;5.404;2022-12-13T10:54:25;101462.06;;;-2.20;94.98
75414;BME280;64758;52.122;5.404;2022-12-13T10:56:54;101461.53;;;-2.11;95.65
75414;BME280;64758;52.122;5.404;2022-12-13T10:59:33;101463.03;;;-2.07;95.81
75414;BME280;64758;52.122;5.404;2022-12-13T11:02:21;101459.75;;;-1.96;94.73
75414;BME280;64758;52.122;5.404;2022-12-13T11:04:47;101453.19;;;-1.88;95.38
75414;BME280;64758;52.122;5.404;2022-12-13T11:07:28;101463.31;;;-1.83;94.61
75414;BME280;64758;52.122;5.404;2022-12-13T11:09:57;101456.91;;;-1.78;94.81
75414;BME280;64758;52.122;5.404;2022-12-13T11:12:31;101458.84;;;-1.67;95.09
75414;BME280;64758;52.122;5.404;2022-12-13T11:15:05;101456.72;;;-1.61;94.95
75414;BME280;64758;52.122;5.404;2022-12-13T11:17:47;101457.25;;;-1.56;94.64
75414;BME280;64758;52.122;5.404;2022-12-13T11:20:22;101442.94;;;-1.49;94.27
75414;BME280;64758;52.122;5.404;2022-12-13T11:23:02;101454.72;;;-1.43;95.14
75414;BME280;64758;52.122;5.404;2022-12-13T11:25:37;101441.81;;;-1.45;94.54
75414;BME280;64758;52.122;5.404;2022-12-13T11:28:11;101452.59;;;-1.37;94.85
75414;BME280;64758;52.122;5.404;2022-12-13T11:33:48;101446.34;;;-1.34;93.67
75414;BME280;64758;52.122;5.404;2022-12-13T11:36:30;101447.75;;;-1.29;93.84
75414;BME280;64758;52.122;5.404;2022-12-13T11:41:39;101436.81;;;-1.22;93.58
75414;BME280;64758;52.122;5.404;2022-12-13T11:44:18;101439.84;;;-1.15;93.51
75414;BME280;64758;52.122;5.404;2022-12-13T11:46:57;101419.47;;;-1.09;93.44
75414;BME280;64758;52.122;5.404;2022-12-13T11:49:37;101418.41;;;-1.06;93.26
75414;BME280;64758;52.122;5.404;2022-12-13T11:52:24;101412.19;;;-1.04;93.31
75414;BME280;64758;52.122;5.404;2022-12-13T11:54:57;101416.56;;;-1.04;92.35
75414;BME280;64758;52.122;5.404;2022-12-13T11:57:34;101419.56;;;-1.10;92.76
75414;BME280;64758;52.122;5.404;2022-12-13T12:00:09;101411.72;;;-1.10;91.83
75414;BME280;64758;52.122;5.404;2022-12-13T12:03:08;101402.91;;;-1.08;91.95
75414;BME280;64758;52.122;5.404;2022-12-13T12:05:44;101403.72;;;-1.07;92.74
75414;BME280;64758;52.122;5.404;2022-12-13T12:08:37;101390.28;;;-1.01;92.27
75414;BME280;64758;52.122;5.404;2022-12-13T12:11:15;101393.97;;;-0.91;92.75
75414;BME280;64758;52.122;5.404;2022-12-13T12:13:49;101395.31;;;-0.98;90.98
75414;BME280;64758;52.122;5.404;2022-12-13T12:16:40;101402.94;;;-0.95;91.88
75414;BME280;64758;52.122;5.404;2022-12-13T12:19:32;101397.50;;;-0.92;92.00
75414;BME280;64758;52.122;5.404;2022-12-13T12:22:29;101397.31;;;-0.89;91.62
75414;BME280;64758;52.122;5.404;2022-12-13T12:28:03;101410.06;;;-0.85;91.51
75414;BME280;64758;52.122;5.404;2022-12-13T12:30:47;101401.38;;;-0.85;91.39
75414;BME280;64758;52.122;5.404;2022-12-13T12:39:41;101399.97;;;-0.77;91.38
75414;BME280;64758;52.122;5.404;2022-12-13T12:42:24;101409.53;;;-0.77;90.62
75414;BME280;64758;52.122;5.404;2022-12-13T12:44:59;101418.63;;;-0.70;90.64
75414;BME280;64758;52.122;5.404;2022-12-13T12:58:42;101398.91;;;-0.74;90.50
75414;BME280;64758;52.122;5.404;2022-12-13T13:03:42;101390.28;;;-0.75;89.64
75414;BME280;64758;52.122;5.404;2022-12-13T13:08:51;101379.72;;;-0.73;90.00
75414;BME280;64758;52.122;5.404;2022-12-13T13:11:22;101374.09;;;-0.67;89.96
75414;BME280;64758;52.122;5.404;2022-12-13T13:16:39;101378.59;;;-0.69;89.80
75414;BME280;64758;52.122;5.404;2022-12-13T13:25:12;101381.19;;;-0.82;89.11
75414;BME280;64758;52.122;5.404;2022-12-13T13:27:45;101373.66;;;-0.86;88.90
75414;BME280;64758;52.122;5.404;2022-12-13T13:30:17;101378.03;;;-0.87;89.46
75414;BME280;64758;52.122;5.404;2022-12-13T13:32:45;101374.59;;;-0.87;90.59
75414;BME280;64758;52.122;5.404;2022-12-13T13:38:04;101378.44;;;-0.93;90.68
75414;BME280;64758;52.122;5.404;2022-12-13T13:40:50;101371.03;;;-0.86;89.44
75414;BME280;64758;52.122;5.404;2022-12-13T13:43:27;101364.38;;;-0.90;89.68
75414;BME280;64758;52.122;5.404;2022-12-13T14:00:30;101337.63;;;-1.06;91.51
75414;BME280;64758;52.122;5.404;2022-12-13T14:28:44;101335.94;;;-1.20;91.73
75414;BME280;64758;52.122;5.404;2022-12-13T14:31:17;101325.91;;;-1.26;91.27
75414;BME280;64758;52.122;5.404;2022-12-13T14:33:48;101330.50;;;-1.29;91.40
75414;BME280;64758;52.122;5.404;2022-12-13T14:36:24;101327.16;;;-1.31;91.52
75414;BME280;64758;52.122;5.404;2022-12-13T14:38:59;101319.63;;;-1.35;91.03
75414;BME280;64758;52.122;5.404;2022-12-13T14:41:26;101318.28;;;-1.41;91.82
75414;BME280;64758;52.122;5.404;2022-12-13T14:43:53;101324.31;;;-1.40;91.57
75414;BME280;64758;52.122;5.404;2022-12-13T14:46:19;101321.28;;;-1.47;91.65
75414;BME280;64758;52.122;5.404;2022-12-13T14:48:51;101330.03;;;-1.48;90.99
75414;BME280;64758;52.122;5.404;2022-12-13T14:51:37;101328.56;;;-1.52;91.44
75414;BME280;64758;52.122;5.404;2022-12-13T14:54:05;101324.75;;;-1.60;91.67
75414;BME280;64758;52.122;5.404;2022-12-13T14:56:33;101331.81;;;-1.62;91.41
75414;BME280;64758;52.122;5.404;2022-12-13T14:59:02;101334.53;;;-1.64;91.52
75414;BME280;64758;52.122;5.404;2022-12-13T15:01:34;101326.38;;;-1.72;92.68
75414;BME280;64758;52.122;5.404;2022-12-13T15:04:37;101329.91;;;-1.73;92.04
75414;BME280;64758;52.122;5.404;2022-12-13T15:07:13;101322.50;;;-1.79;92.65
75414;BME280;64758;52.122;5.404;2022-12-13T15:09:43;101325.38;;;-1.83;92.94